createdAt,value
2022-11-29T00:00:53.479Z,19.17
2022-11-29T00:03:58.285Z,19.55
2022-11-29T00:07:00.979Z,18.15
2022-11-29T00:10:05.189Z,17.48
2022-11-29T00:13:07.869Z,16.58
2022-11-29T00:16:14.163Z,16.10
2022-11-29T00:19:19.087Z,17.02
2022-11-29T00:22:23.567Z,17.27
2022-11-29T00:25:28.203Z,15.80
2022-11-29T00:28:30.949Z,16.30
2022-11-29T00:31:36.662Z,14.80
2022-11-29T00:34:40.892Z,15.85
2022-11-29T00:37:43.647Z,14.30
2022-11-29T00:40:53.339Z,15.15
2022-11-29T00:43:56.243Z,15.50
2022-11-29T00:47:01.534Z,16.33
2022-11-29T00:50:04.950Z,15.27
2022-11-29T00:53:08.927Z,16.23
2022-11-29T00:56:11.670Z,15.52
2022-11-29T00:59:15.680Z,15.07
2022-11-29T01:02:19.785Z,15.83
2022-11-29T01:05:23.916Z,15.25
2022-11-29T01:08:27.862Z,15.02
2022-11-29T01:11:30.551Z,14.65
2022-11-29T01:14:34.522Z,14.30
2022-11-29T01:17:39.615Z,16.03
2022-11-29T01:20:43.529Z,15.15
2022-11-29T01:23:48.768Z,14.88
2022-11-29T01:26:51.452Z,16.50
2022-11-29T01:29:55.449Z,16.35
2022-11-29T01:32:59.511Z,14.43
2022-11-29T01:36:04.014Z,15.30
2022-11-29T01:39:08.304Z,16.23
2022-11-29T01:42:11.791Z,15.75
2022-11-29T01:45:24.985Z,15.88
2022-11-29T01:48:31.739Z,16.30
2022-11-29T01:51:38.164Z,14.73
2022-11-29T01:54:43.655Z,16.02
2022-11-29T01:57:47.971Z,15.40
2022-11-29T02:00:52.109Z,16.75
2022-11-29T02:03:57.823Z,16.10
2022-11-29T02:07:00.584Z,15.73
2022-11-29T02:10:06.436Z,16.73
2022-11-29T02:13:19.641Z,16.20
2022-11-29T02:16:29.983Z,16.75
2022-11-29T02:20:07.950Z,15.83
2022-11-29T02:23:36.159Z,15.85
2022-11-29T02:27:13.513Z,16.73
2022-11-29T02:34:07.985Z,15.38
2022-11-29T02:37:30.869Z,14.80
2022-11-29T02:40:50.488Z,15.82
2022-11-29T02:44:10.219Z,16.05
2022-11-29T02:47:23.267Z,15.30
2022-11-29T02:50:38.827Z,17.05
2022-11-29T02:53:51.009Z,16.17
2022-11-29T02:56:59.755Z,15.77
2022-11-29T03:00:06.676Z,16.42
2022-11-29T03:03:21.763Z,17.37
2022-11-29T03:06:38.356Z,16.27
2022-11-29T03:09:46.055Z,15.25
2022-11-29T03:12:52.643Z,16.65
2022-11-29T03:16:01.725Z,16.15
2022-11-29T03:19:24.722Z,16.10
2022-11-29T03:22:45.364Z,18.17
2022-11-29T03:25:55.990Z,17.63
2022-11-29T03:29:08.430Z,16.95
2022-11-29T03:32:17.207Z,17.65
2022-11-29T03:35:27.791Z,17.73
2022-11-29T03:38:42.086Z,17.10
2022-11-29T03:41:50.788Z,17.58
2022-11-29T03:45:00.652Z,16.48
2022-11-29T03:48:11.723Z,17.50
2022-11-29T03:51:20.284Z,17.20
2022-11-29T03:54:28.914Z,16.90
2022-11-29T03:57:37.663Z,15.85
2022-11-29T04:00:58.882Z,15.93
2022-11-29T04:04:44.758Z,16.13
2022-11-29T04:08:02.183Z,15.37
2022-11-29T04:11:37.447Z,16.50
2022-11-29T04:15:25.321Z,16.63
2022-11-29T04:22:36.040Z,15.35
2022-11-29T04:25:56.531Z,17.93
2022-11-29T04:29:18.299Z,16.83
2022-11-29T04:32:44.653Z,15.32
2022-11-29T04:36:00.057Z,15.50
2022-11-29T04:39:25.560Z,17.17
2022-11-29T04:42:43.597Z,16.47
2022-11-29T04:46:04.397Z,17.57
2022-11-29T04:49:20.223Z,17.55
2022-11-29T04:52:43.936Z,17.58
2022-11-29T04:55:56.880Z,17.35
2022-11-29T04:59:06.773Z,15.63
2022-11-29T05:02:18.534Z,17.03
2022-11-29T05:05:32.549Z,15.77
2022-11-29T05:08:48.556Z,16.98
2022-11-29T05:12:00.599Z,18.80
2022-11-29T05:15:34.001Z,16.90
2022-11-29T05:18:58.493Z,16.50
2022-11-29T05:22:15.482Z,16.50
2022-11-29T05:25:33.388Z,17.23
2022-11-29T05:28:51.015Z,17.17
2022-11-29T05:32:06.828Z,17.50
2022-11-29T05:35:33.675Z,16.90
2022-11-29T05:38:52.277Z,16.92
2022-11-29T05:42:10.852Z,16.73
2022-11-29T05:48:50.140Z,17.43
2022-11-29T05:52:06.194Z,16.23
2022-11-29T05:55:20.747Z,15.75
2022-11-29T05:58:30.780Z,16.20
2022-11-29T06:01:42.925Z,17.63
2022-11-29T06:05:03.573Z,16.27
2022-11-29T06:08:15.630Z,14.80
2022-11-29T06:11:24.299Z,16.58
2022-11-29T06:14:46.571Z,17.23
2022-11-29T06:18:12.211Z,15.73
2022-11-29T06:21:27.737Z,16.30
2022-11-29T06:24:44.634Z,18.23
2022-11-29T06:27:59.786Z,16.98
2022-11-29T06:31:12.336Z,17.55
2022-11-29T06:34:30.529Z,16.67
2022-11-29T06:37:39.725Z,16.17
2022-11-29T06:40:44.763Z,16.87
2022-11-29T06:43:48.315Z,16.13
2022-11-29T06:47:02.182Z,15.48
2022-11-29T06:50:23.138Z,17.25
2022-11-29T06:53:34.829Z,18.63
2022-11-29T06:56:46.276Z,17.23
2022-11-29T07:00:02.263Z,16.10
2022-11-29T07:03:23.109Z,17.00
2022-11-29T07:06:27.936Z,15.38
2022-11-29T07:09:35.598Z,17.03
2022-11-29T07:12:41.695Z,17.87
2022-11-29T07:15:54.483Z,15.70
2022-11-29T07:19:11.482Z,16.27
2022-11-29T07:22:31.287Z,15.88
2022-11-29T07:25:42.625Z,16.03
2022-11-29T07:29:01.926Z,16.20
2022-11-29T07:32:13.138Z,17.90
2022-11-29T07:35:20.355Z,16.73
2022-11-29T07:38:32.755Z,16.83
2022-11-29T07:41:45.746Z,16.93
2022-11-29T07:45:00.508Z,16.57
2022-11-29T07:48:03.348Z,17.95
2022-11-29T07:51:06.291Z,17.48
2022-11-29T07:54:10.766Z,16.02
2022-11-29T07:57:13.468Z,16.77
2022-11-29T08:00:21.569Z,17.30
2022-11-29T08:03:24.326Z,16.45
2022-11-29T08:06:28.644Z,18.13
2022-11-29T08:09:31.347Z,16.95
2022-11-29T08:12:35.357Z,17.80
2022-11-29T08:15:45.697Z,17.07
2022-11-29T08:18:49.675Z,15.95
2022-11-29T08:21:53.687Z,16.85
2022-11-29T08:24:56.426Z,15.90
2022-11-29T08:28:01.029Z,16.70
2022-11-29T08:31:06.671Z,17.47
2022-11-29T08:34:10.604Z,16.00
2022-11-29T08:37:14.566Z,17.90
2022-11-29T08:40:17.949Z,17.65
2022-11-29T08:43:20.672Z,16.83
2022-11-29T08:46:44.794Z,15.50
2022-11-29T08:50:03.686Z,16.70
2022-11-29T08:53:30.505Z,17.42
2022-11-29T08:57:16.569Z,17.55
2022-11-29T08:59:56.004Z,16.83
2022-11-29T09:03:21.404Z,16.37
2022-11-29T09:06:24.130Z,17.02
2022-11-29T09:09:26.888Z,17.58
2022-11-29T09:12:29.598Z,15.13
2022-11-29T09:15:32.353Z,15.60
2022-11-29T09:18:38.148Z,16.20
2022-11-29T09:21:42.226Z,17.38
2022-11-29T09:24:46.548Z,16.70
2022-11-29T09:27:50.760Z,16.08
2022-11-29T09:30:53.506Z,17.10
2022-11-29T09:33:57.994Z,17.37
2022-11-29T09:37:00.719Z,17.25
2022-11-29T09:40:04.890Z,16.10
2022-11-29T09:43:19.408Z,16.35
2022-11-29T09:46:35.153Z,15.20
2022-11-29T09:49:56.669Z,15.87
2022-11-29T09:53:18.527Z,15.90
2022-11-29T09:56:30.740Z,15.85
2022-11-29T10:03:05.729Z,16.17
2022-11-29T10:06:19.935Z,17.13
2022-11-29T10:09:33.565Z,15.63
2022-11-29T10:12:40.971Z,15.82
2022-11-29T10:15:48.028Z,15.88
2022-11-29T10:18:55.703Z,15.40
2022-11-29T10:22:04.867Z,16.27
2022-11-29T10:25:12.077Z,15.45
2022-11-29T10:28:18.104Z,16.40
2022-11-29T10:31:25.024Z,16.63
2022-11-29T10:34:32.698Z,15.90
2022-11-29T10:37:36.814Z,15.67
2022-11-29T10:40:43.089Z,15.65
2022-11-29T10:43:47.337Z,16.10
2022-11-29T10:46:50.193Z,18.13
2022-11-29T10:49:54.292Z,17.00
2022-11-29T10:53:04.596Z,15.07
2022-11-29T10:56:11.029Z,16.55
2022-11-29T10:59:22.093Z,17.50
2022-11-29T11:02:26.675Z,17.33
2022-11-29T11:05:29.477Z,17.53
2022-11-29T11:08:36.157Z,16.63
2022-11-29T11:11:41.133Z,16.88
2022-11-29T11:14:46.995Z,17.50
2022-11-29T11:17:58.733Z,15.77
2022-11-29T11:21:03.834Z,15.03
2022-11-29T11:24:24.486Z,16.10
2022-11-29T11:27:34.168Z,17.15
2022-11-29T11:30:38.202Z,18.30
2022-11-29T11:33:42.496Z,16.55
2022-11-29T11:36:46.414Z,17.33
2022-11-29T11:39:52.731Z,17.50
2022-11-29T11:42:59.954Z,17.55
2022-11-29T11:46:03.047Z,18.35
2022-11-29T11:49:14.409Z,18.02
2022-11-29T11:52:23.219Z,16.60
2022-11-29T11:55:33.907Z,17.83
2022-11-29T11:58:41.388Z,17.42
2022-11-29T12:01:45.830Z,16.85
2022-11-29T12:04:49.569Z,17.60
2022-11-29T12:08:07.935Z,17.53
2022-11-29T12:11:16.908Z,18.00
2022-11-29T12:14:27.708Z,19.13
2022-11-29T12:17:36.458Z,17.38
2022-11-29T12:20:44.646Z,16.90
2022-11-29T12:23:53.426Z,18.57
2022-11-29T12:27:02.783Z,17.40
2022-11-29T12:30:13.630Z,16.90
2022-11-29T12:33:29.611Z,17.13
2022-11-29T12:36:43.393Z,18.45
2022-11-29T12:40:05.839Z,18.37
2022-11-29T12:43:25.266Z,17.53
2022-11-29T12:46:31.352Z,18.15
2022-11-29T12:49:45.523Z,17.27
2022-11-29T12:52:57.353Z,19.88
2022-11-29T12:56:10.978Z,19.50
2022-11-29T12:59:28.939Z,19.10
2022-11-29T13:02:55.349Z,19.27
2022-11-29T13:06:08.282Z,19.13
2022-11-29T13:09:28.368Z,17.70
2022-11-29T13:16:08.699Z,17.77
2022-11-29T13:19:19.552Z,18.88
2022-11-29T13:22:40.222Z,18.58
2022-11-29T13:25:46.437Z,20.00
2022-11-29T13:28:51.460Z,20.17
2022-11-29T13:31:55.769Z,19.53
2022-11-29T13:35:03.432Z,18.27
2022-11-29T13:38:15.836Z,17.70
2022-11-29T13:41:28.518Z,18.88
2022-11-29T13:44:39.361Z,18.60
2022-11-29T13:47:52.694Z,19.73
2022-11-29T13:50:58.784Z,18.02
2022-11-29T13:54:05.075Z,20.25
2022-11-29T13:57:10.106Z,19.65
2022-11-29T14:00:30.252Z,19.73
2022-11-29T14:03:38.400Z,18.30
2022-11-29T14:06:42.134Z,19.85
2022-11-29T14:09:51.218Z,18.85
2022-11-29T14:12:59.865Z,19.52
2022-11-29T14:16:06.881Z,20.60
2022-11-29T14:19:30.120Z,20.00
2022-11-29T14:22:36.909Z,20.40
2022-11-29T14:25:51.820Z,16.85
2022-11-29T14:28:55.343Z,19.20
2022-11-29T14:31:59.339Z,21.10
2022-11-29T14:35:16.206Z,18.63
2022-11-29T14:38:30.963Z,18.13
2022-11-29T14:41:50.736Z,18.92
2022-11-29T14:44:58.275Z,18.85
2022-11-29T14:48:02.882Z,18.80
2022-11-29T14:51:12.328Z,18.70
2022-11-29T14:54:20.721Z,18.70
2022-11-29T14:57:54.091Z,21.35
2022-11-29T15:01:09.538Z,20.40
2022-11-29T15:04:15.632Z,19.87
2022-11-29T15:07:25.735Z,20.10
2022-11-29T15:10:32.670Z,18.48
2022-11-29T15:13:37.469Z,18.25
2022-11-29T15:17:03.111Z,21.60
2022-11-29T15:20:25.655Z,22.70
2022-11-29T15:23:30.441Z,20.50
2022-11-29T15:26:34.636Z,19.45
2022-11-29T15:29:37.669Z,20.92
2022-11-29T15:32:42.089Z,19.33
2022-11-29T15:35:51.846Z,19.33
2022-11-29T15:38:59.222Z,19.50
2022-11-29T15:42:09.592Z,20.42
2022-11-29T15:45:30.333Z,19.23
2022-11-29T15:48:33.923Z,21.08
2022-11-29T15:51:40.913Z,19.33
2022-11-29T15:54:49.348Z,20.63
2022-11-29T15:57:57.152Z,19.73
2022-11-29T16:01:01.945Z,19.63
2022-11-29T16:04:05.209Z,18.80
2022-11-29T16:07:08.313Z,19.70
2022-11-29T16:10:15.901Z,19.97
2022-11-29T16:13:34.401Z,20.35
2022-11-29T16:16:37.914Z,21.63
2022-11-29T16:19:42.987Z,22.88
2022-11-29T16:22:45.955Z,21.13
2022-11-29T16:25:56.511Z,19.83
2022-11-29T16:28:59.221Z,19.92
2022-11-29T16:32:15.338Z,20.10
2022-11-29T16:35:25.400Z,21.77
2022-11-29T16:38:29.462Z,23.87
2022-11-29T16:41:35.776Z,21.37
2022-11-29T16:45:03.685Z,23.00
2022-11-29T16:48:29.279Z,22.83
2022-11-29T16:51:40.758Z,22.73
2022-11-29T16:54:43.644Z,21.47
2022-11-29T16:57:50.092Z,22.50
2022-11-29T17:00:52.831Z,22.48
2022-11-29T17:03:57.899Z,21.48
2022-11-29T17:07:01.941Z,23.67
2022-11-29T17:10:06.329Z,22.50
2022-11-29T17:13:12.213Z,22.63
2022-11-29T17:16:16.784Z,22.98
2022-11-29T17:19:25.495Z,24.48
2022-11-29T17:22:28.265Z,23.13
2022-11-29T17:25:30.976Z,23.63
2022-11-29T17:28:35.063Z,23.30
2022-11-29T17:31:38.068Z,23.25
2022-11-29T17:34:40.828Z,21.92
2022-11-29T17:37:43.540Z,22.30
2022-11-29T17:40:47.509Z,23.33
2022-11-29T17:43:52.850Z,23.37
2022-11-29T17:50:17.533Z,21.70
2022-11-29T17:53:21.486Z,23.02
2022-11-29T17:56:25.818Z,21.60
2022-11-29T17:59:31.227Z,21.57
2022-11-29T18:02:34.014Z,23.15
2022-11-29T18:05:38.110Z,21.58
2022-11-29T18:08:42.152Z,22.67
2022-11-29T18:11:49.275Z,21.70
2022-11-29T18:14:55.071Z,21.40
2022-11-29T18:17:57.778Z,20.70
2022-11-29T18:21:01.197Z,21.70
2022-11-29T18:24:06.986Z,20.30
2022-11-29T18:27:10.911Z,21.10
2022-11-29T18:30:16.916Z,21.97
2022-11-29T18:33:20.349Z,21.52
2022-11-29T18:36:25.338Z,20.80
2022-11-29T18:42:51.249Z,22.93
2022-11-29T18:45:56.637Z,22.37
2022-11-29T18:49:01.085Z,20.10
2022-11-29T18:52:05.182Z,20.55
2022-11-29T18:55:09.919Z,21.40
2022-11-29T18:58:12.625Z,20.03
2022-11-29T19:04:39.615Z,21.52
2022-11-29T19:07:43.692Z,20.90
2022-11-29T19:10:46.574Z,21.20
2022-11-29T19:13:57.401Z,20.77
2022-11-29T19:17:01.447Z,22.10
2022-11-29T19:20:05.652Z,22.30
2022-11-29T19:23:08.361Z,21.10
2022-11-29T19:26:14.483Z,22.27
2022-11-29T19:29:18.717Z,19.58
2022-11-29T19:32:22.806Z,21.55
2022-11-29T19:35:26.783Z,22.88
2022-11-29T19:38:29.550Z,22.83
2022-11-29T19:41:33.876Z,19.50
2022-11-29T19:45:08.541Z,19.83
2022-11-29T19:48:02.043Z,22.67
2022-11-29T19:51:06.379Z,20.20
2022-11-29T19:54:11.712Z,19.48
2022-11-29T19:57:15.722Z,18.73
2022-11-29T20:00:21.159Z,21.65
2022-11-29T20:03:25.264Z,21.42
2022-11-29T20:06:30.327Z,20.88
2022-11-29T20:09:33.123Z,22.05
2022-11-29T20:12:36.928Z,19.23
2022-11-29T20:15:39.781Z,21.35
2022-11-29T20:18:50.335Z,20.05
2022-11-29T20:25:15.292Z,19.20
2022-11-29T20:28:18.047Z,20.97
2022-11-29T20:31:23.004Z,19.33
2022-11-29T20:34:27.626Z,20.55
2022-11-29T20:41:15.894Z,20.98
2022-11-29T20:44:23.214Z,19.43
2022-11-29T20:47:27.370Z,18.33
2022-11-29T20:50:34.030Z,20.15
2022-11-29T20:53:41.136Z,20.20
2022-11-29T20:56:43.880Z,21.70
2022-11-29T20:59:48.111Z,19.83
2022-11-29T21:02:50.926Z,20.77
2022-11-29T21:05:57.472Z,20.33
2022-11-29T21:09:01.537Z,21.00
2022-11-29T21:12:04.818Z,20.73
2022-11-29T21:15:11.129Z,20.70
2022-11-29T21:18:23.622Z,21.27
2022-11-29T21:21:35.172Z,22.65
2022-11-29T21:24:46.670Z,21.13
2022-11-29T21:27:51.512Z,19.73
2022-11-29T21:30:55.001Z,20.33
2022-11-29T21:33:59.520Z,20.33
2022-11-29T21:37:05.316Z,22.17
2022-11-29T21:40:11.172Z,21.10
2022-11-29T21:43:15.103Z,21.88
2022-11-29T21:46:17.995Z,20.03
2022-11-29T21:49:22.046Z,21.08
2022-11-29T21:52:27.383Z,21.42
2022-11-29T21:55:32.222Z,21.15
2022-11-29T21:58:36.855Z,21.95
2022-11-29T22:01:40.999Z,21.97
2022-11-29T22:04:43.930Z,20.35
2022-11-29T22:07:49.430Z,21.35
2022-11-29T22:11:01.412Z,21.60
2022-11-29T22:14:16.806Z,21.92
2022-11-29T22:17:20.857Z,20.57
2022-11-29T22:20:24.934Z,21.08
2022-11-29T22:23:30.298Z,22.65
2022-11-29T22:26:32.973Z,22.40
2022-11-29T22:29:36.992Z,23.70
2022-11-29T22:32:41.027Z,21.00
2022-11-29T22:35:45.531Z,21.95
2022-11-29T22:38:51.272Z,22.55
2022-11-29T22:41:55.225Z,23.00
2022-11-29T22:44:59.436Z,23.42
2022-11-29T22:48:02.212Z,20.53
2022-11-29T22:54:30.905Z,21.52
2022-11-29T22:57:33.619Z,23.88
2022-11-29T23:00:42.425Z,22.07
2022-11-29T23:03:48.073Z,21.98
2022-11-29T23:06:52.121Z,23.27
2022-11-29T23:13:19.301Z,22.47
2022-11-29T23:16:26.046Z,20.40
2022-11-29T23:19:30.935Z,21.20
2022-11-29T23:22:38.591Z,22.92
2022-11-29T23:25:50.459Z,21.35
2022-11-29T23:28:53.867Z,23.33
2022-11-29T23:31:57.857Z,20.75
2022-11-29T23:35:00.578Z,23.92
2022-11-29T23:38:04.557Z,20.90
2022-11-29T23:41:09.439Z,22.35
2022-11-29T23:44:13.596Z,21.87
2022-11-29T23:47:16.275Z,21.52
2022-11-29T23:50:20.342Z,23.58
2022-11-29T23:53:23.055Z,23.05
2022-11-29T23:56:36.298Z,22.92
2022-11-29T23:59:40.256Z,22.03
